KCEW/CEW METAR and TAF weather

Enter ICAO airport designator
Station Type Date Time Source
KCEW METAR 2019/04/21 21:53 UTC NOAA

KCEW 212153Z AUTO 00000KT 10SM CLR 26/M01 A3012 RMK AO2 SLP196 T02611011


Station Type Date Time Source
KCEW Decoded METAR 2019/04/21 21:53 UTC NOAA

CRESTVIEW SIKES AIRPORT, FL, United States (KCEW) 30-46N 086-31W 55M
Apr 21, 2019 - 05:53 PM EDT / 2019.04.21 2153 UTC
Wind: Calm:0
Visibility: 10 mile(s):0
Sky conditions: clear
Temperature: 79.0 F (26.1 C)
Dew Point: 30.0 F (-1.1 C)
Relative Humidity: 16%
Pressure (altimeter): 30.12 in. Hg (1019 hPa)
ob: KCEW 212153Z AUTO 00000KT 10SM CLR 26/M01 A3012 RMK AO2 SLP196 T02611011
cycle: 22

Station Type Date Time Source
KCEW TAF UTC NOAA

Error!

Example: see airport list